sensor_id;sensor_type;location;lat;lon;timestamp;temperature;humidity
67893;DHT22;54688;52.376;16.744;2022-11-27T00:00:44;4.2;86.3
67893;DHT22;54688;52.376;16.744;2022-11-27T00:04:13;4.2;86.2
67893;DHT22;54688;52.376;16.744;2022-11-27T00:07:15;4.2;86.2
67893;DHT22;54688;52.376;16.744;2022-11-27T00:10:18;4.1;86.1
67893;DHT22;54688;52.376;16.744;2022-11-27T00:13:20;4.1;86.6
67893;DHT22;54688;52.376;16.744;2022-11-27T00:16:22;4.1;86.4
67893;DHT22;54688;52.376;16.744;2022-11-27T00:19:26;4.1;86.4
67893;DHT22;54688;52.376;16.744;2022-11-27T00:22:28;4.1;86.3
67893;DHT22;54688;52.376;16.744;2022-11-27T00:25:29;4.1;86.4
67893;DHT22;54688;52.376;16.744;2022-11-27T00:28:32;4.2;86.5
67893;DHT22;54688;52.376;16.744;2022-11-27T00:31:35;4.1;86.4
67893;DHT22;54688;52.376;16.744;2022-11-27T00:34:38;4.2;87
67893;DHT22;54688;52.376;16.744;2022-11-27T00:37:40;4.2;86.3
67893;DHT22;54688;52.376;16.744;2022-11-27T00:40:43;4.2;86.4
67893;DHT22;54688;52.376;16.744;2022-11-27T00:43:44;4.2;86.4
67893;DHT22;54688;52.376;16.744;2022-11-27T00:49:46;4.3;86.3
67893;DHT22;54688;52.376;16.744;2022-11-27T00:52:48;4.2;86.3
67893;DHT22;54688;52.376;16.744;2022-11-27T00:55:50;4.3;86.3
67893;DHT22;54688;52.376;16.744;2022-11-27T00:58:52;4.3;86.2
67893;DHT22;54688;52.376;16.744;2022-11-27T01:01:55;4.3;86.3
67893;DHT22;54688;52.376;16.744;2022-11-27T01:04:56;4.3;86.3
67893;DHT22;54688;52.376;16.744;2022-11-27T01:07:58;4.3;86.2
67893;DHT22;54688;52.376;16.744;2022-11-27T01:11:01;4.4;86.2
67893;DHT22;54688;52.376;16.744;2022-11-27T01:14:04;4.4;86
67893;DHT22;54688;52.376;16.744;2022-11-27T01:17:08;4.3;85.8
67893;DHT22;54688;52.376;16.744;2022-11-27T01:20:10;4.4;86.5
67893;DHT22;54688;52.376;16.744;2022-11-27T01:23:13;4.4;85.5
67893;DHT22;54688;52.376;16.744;2022-11-27T01:26:16;4.3;85
67893;DHT22;54688;52.376;16.744;2022-11-27T01:29:19;4.3;85.8
67893;DHT22;54688;52.376;16.744;2022-11-27T01:32:20;4.3;85.8
67893;DHT22;54688;52.376;16.744;2022-11-27T01:35:22;4.3;85.8
67893;DHT22;54688;52.376;16.744;2022-11-27T01:38:25;4.4;85.9
67893;DHT22;54688;52.376;16.744;2022-11-27T01:41:28;4.4;85.9
67893;DHT22;54688;52.376;16.744;2022-11-27T01:45:03;4.3;85.8
67893;DHT22;54688;52.376;16.744;2022-11-27T01:48:05;4.4;85.9
67893;DHT22;54688;52.376;16.744;2022-11-27T01:51:10;4.4;85.9
67893;DHT22;54688;52.376;16.744;2022-11-27T01:54:12;4.4;85.3
67893;DHT22;54688;52.376;16.744;2022-11-27T01:57:18;4.4;85.8
67893;DHT22;54688;52.376;16.744;2022-11-27T02:00:22;4.3;85.7
67893;DHT22;54688;52.376;16.744;2022-11-27T02:03:24;4.4;85.9
67893;DHT22;54688;52.376;16.744;2022-11-27T02:06:27;4.3;85.8
67893;DHT22;54688;52.376;16.744;2022-11-27T02:09:29;4.4;85.9
67893;DHT22;54688;52.376;16.744;2022-11-27T02:12:34;4.3;85.9
67893;DHT22;54688;52.376;16.744;2022-11-27T02:15:46;4.4;85.9
67893;DHT22;54688;52.376;16.744;2022-11-27T02:18:56;4.4;85.8
67893;DHT22;54688;52.376;16.744;2022-11-27T02:22:02;4.4;85.8
67893;DHT22;54688;52.376;16.744;2022-11-27T02:25:10;4.4;85.9
67893;DHT22;54688;52.376;16.744;2022-11-27T02:28:25;4.4;85.9
67893;DHT22;54688;52.376;16.744;2022-11-27T02:31:37;4.4;85.8
67893;DHT22;54688;52.376;16.744;2022-11-27T02:34:45;4.5;85.8
67893;DHT22;54688;52.376;16.744;2022-11-27T02:37:51;4.4;85.7
67893;DHT22;54688;52.376;16.744;2022-11-27T02:40:58;4.4;85.7
67893;DHT22;54688;52.376;16.744;2022-11-27T02:44:05;4.4;85.8
67893;DHT22;54688;52.376;16.744;2022-11-27T02:47:09;4.4;85.8
67893;DHT22;54688;52.376;16.744;2022-11-27T02:50:15;4.4;85.9
67893;DHT22;54688;52.376;16.744;2022-11-27T02:53:21;4.4;86.1
67893;DHT22;54688;52.376;16.744;2022-11-27T02:56:27;4.4;86.2
67893;DHT22;54688;52.376;16.744;2022-11-27T02:59:31;4.4;86.2
67893;DHT22;54688;52.376;16.744;2022-11-27T03:02:35;4.4;86.1
67893;DHT22;54688;52.376;16.744;2022-11-27T03:05:42;4.5;86
67893;DHT22;54688;52.376;16.744;2022-11-27T03:08:49;4.5;86
67893;DHT22;54688;52.376;16.744;2022-11-27T03:11:55;4.5;86
67893;DHT22;54688;52.376;16.744;2022-11-27T03:14:57;4.5;86
67893;DHT22;54688;52.376;16.744;2022-11-27T03:18:00;4.5;86
67893;DHT22;54688;52.376;16.744;2022-11-27T03:21:14;4.5;86
67893;DHT22;54688;52.376;16.744;2022-11-27T03:24:23;4.5;85.9
67893;DHT22;54688;52.376;16.744;2022-11-27T03:27:29;4.5;85.8
67893;DHT22;54688;52.376;16.744;2022-11-27T03:30:35;4.5;85.8
67893;DHT22;54688;52.376;16.744;2022-11-27T03:33:37;4.5;85.9
67893;DHT22;54688;52.376;16.744;2022-11-27T03:36:40;4.5;86.1
67893;DHT22;54688;52.376;16.744;2022-11-27T03:39:42;4.5;86
67893;DHT22;54688;52.376;16.744;2022-11-27T03:42:48;4.6;86
67893;DHT22;54688;52.376;16.744;2022-11-27T03:45:59;4.6;86
67893;DHT22;54688;52.376;16.744;2022-11-27T03:49:07;4.6;86
67893;DHT22;54688;52.376;16.744;2022-11-27T03:52:15;4.6;86.7
67893;DHT22;54688;52.376;16.744;2022-11-27T03:55:26;4.6;85.9
67893;DHT22;54688;52.376;16.744;2022-11-27T03:58:32;4.6;85.8
67893;DHT22;54688;52.376;16.744;2022-11-27T04:01:37;4.6;85.9
67893;DHT22;54688;52.376;16.744;2022-11-27T04:04:40;4.7;85.9
67893;DHT22;54688;52.376;16.744;2022-11-27T04:07:42;4.6;86
67893;DHT22;54688;52.376;16.744;2022-11-27T04:10:44;4.6;85.9
67893;DHT22;54688;52.376;16.744;2022-11-27T04:13:47;4.7;86
67893;DHT22;54688;52.376;16.744;2022-11-27T04:16:49;4.7;86
67893;DHT22;54688;52.376;16.744;2022-11-27T04:19:52;4.7;85.9
67893;DHT22;54688;52.376;16.744;2022-11-27T04:22:54;4.7;85.9
67893;DHT22;54688;52.376;16.744;2022-11-27T04:25:56;4.7;85.8
67893;DHT22;54688;52.376;16.744;2022-11-27T04:28:59;4.7;85.8
67893;DHT22;54688;52.376;16.744;2022-11-27T04:32:01;4.8;85.7
67893;DHT22;54688;52.376;16.744;2022-11-27T04:35:04;4.8;86.2
67893;DHT22;54688;52.376;16.744;2022-11-27T04:38:07;4.7;85.6
67893;DHT22;54688;52.376;16.744;2022-11-27T04:41:09;4.8;85.6
67893;DHT22;54688;52.376;16.744;2022-11-27T04:44:11;4.8;85.5
67893;DHT22;54688;52.376;16.744;2022-11-27T04:47:13;4.8;85.5
67893;DHT22;54688;52.376;16.744;2022-11-27T04:50:15;4.8;85.4
67893;DHT22;54688;52.376;16.744;2022-11-27T04:53:17;4.8;85.2
67893;DHT22;54688;52.376;16.744;2022-11-27T04:56:19;4.8;85.8
67893;DHT22;54688;52.376;16.744;2022-11-27T04:59:21;4.8;85.2
67893;DHT22;54688;52.376;16.744;2022-11-27T05:02:23;4.8;85.2
67893;DHT22;54688;52.376;16.744;2022-11-27T05:05:25;4.8;85.2
67893;DHT22;54688;52.376;16.744;2022-11-27T05:08:29;4.8;85.2
67893;DHT22;54688;52.376;16.744;2022-11-27T05:11:32;4.8;85.3
67893;DHT22;54688;52.376;16.744;2022-11-27T05:14:35;4.8;85.3
67893;DHT22;54688;52.376;16.744;2022-11-27T05:17:37;4.8;85.4
67893;DHT22;54688;52.376;16.744;2022-11-27T05:20:39;4.8;85.6
67893;DHT22;54688;52.376;16.744;2022-11-27T05:23:41;4.8;85.7
67893;DHT22;54688;52.376;16.744;2022-11-27T05:26:44;4.8;85.6
67893;DHT22;54688;52.376;16.744;2022-11-27T05:32:45;4.8;85.6
67893;DHT22;54688;52.376;16.744;2022-11-27T05:35:47;4.8;85.4
67893;DHT22;54688;52.376;16.744;2022-11-27T05:38:50;4.8;85.5
67893;DHT22;54688;52.376;16.744;2022-11-27T05:41:52;4.8;85.4
67893;DHT22;54688;52.376;16.744;2022-11-27T05:47:53;4.8;85.4
67893;DHT22;54688;52.376;16.744;2022-11-27T05:53:56;4.8;85.3
67893;DHT22;54688;52.376;16.744;2022-11-27T05:56:58;4.8;85.3
67893;DHT22;54688;52.376;16.744;2022-11-27T06:02:59;4.8;85.4
67893;DHT22;54688;52.376;16.744;2022-11-27T06:06:04;4.8;85.3
67893;DHT22;54688;52.376;16.744;2022-11-27T06:09:07;4.9;85.4
67893;DHT22;54688;52.376;16.744;2022-11-27T06:12:09;4.9;85.3
67893;DHT22;54688;52.376;16.744;2022-11-27T06:15:11;4.8;85.4
67893;DHT22;54688;52.376;16.744;2022-11-27T06:18:13;4.9;85.3
67893;DHT22;54688;52.376;16.744;2022-11-27T06:21:15;4.9;85.6
67893;DHT22;54688;52.376;16.744;2022-11-27T06:24:19;4.9;85.4
67893;DHT22;54688;52.376;16.744;2022-11-27T06:27:21;4.9;85.1
67893;DHT22;54688;52.376;16.744;2022-11-27T06:30:23;4.9;85.1
67893;DHT22;54688;52.376;16.744;2022-11-27T06:33:25;4.8;85.2
67893;DHT22;54688;52.376;16.744;2022-11-27T06:36:28;4.9;86.5
67893;DHT22;54688;52.376;16.744;2022-11-27T06:39:31;4.9;85.5
67893;DHT22;54688;52.376;16.744;2022-11-27T06:42:34;4.9;85.5
67893;DHT22;54688;52.376;16.744;2022-11-27T06:45:35;4.9;86
67893;DHT22;54688;52.376;16.744;2022-11-27T06:48:37;4.9;84.7
67893;DHT22;54688;52.376;16.744;2022-11-27T06:51:39;4.9;85.6
67893;DHT22;54688;52.376;16.744;2022-11-27T06:54:41;4.9;85.7
67893;DHT22;54688;52.376;16.744;2022-11-27T06:57:43;4.9;85.6
67893;DHT22;54688;52.376;16.744;2022-11-27T07:00:45;4.9;85.6
67893;DHT22;54688;52.376;16.744;2022-11-27T07:03:48;4.9;85.6
67893;DHT22;54688;52.376;16.744;2022-11-27T07:06:52;5;85.7
67893;DHT22;54688;52.376;16.744;2022-11-27T07:09:55;5;85.8
67893;DHT22;54688;52.376;16.744;2022-11-27T07:12:57;5;85.8
67893;DHT22;54688;52.376;16.744;2022-11-27T07:15:59;5;85.7
67893;DHT22;54688;52.376;16.744;2022-11-27T07:22:01;5.1;85.9
67893;DHT22;54688;52.376;16.744;2022-11-27T07:25:04;5.1;85.7
67893;DHT22;54688;52.376;16.744;2022-11-27T07:28:06;5.1;85.6
67893;DHT22;54688;52.376;16.744;2022-11-27T07:31:08;5.2;85.8
67893;DHT22;54688;52.376;16.744;2022-11-27T07:34:11;5.2;85.7
67893;DHT22;54688;52.376;16.744;2022-11-27T07:37:13;5.2;85.7
67893;DHT22;54688;52.376;16.744;2022-11-27T07:40:15;5.2;85
67893;DHT22;54688;52.376;16.744;2022-11-27T07:43:17;5.3;86.2
67893;DHT22;54688;52.376;16.744;2022-11-27T07:46:20;5.3;85.6
67893;DHT22;54688;52.376;16.744;2022-11-27T07:49:23;5.3;84.7
67893;DHT22;54688;52.376;16.744;2022-11-27T07:52:26;5.3;85.3
67893;DHT22;54688;52.376;16.744;2022-11-27T07:55:28;5.3;85.3
67893;DHT22;54688;52.376;16.744;2022-11-27T07:58:30;5.3;85.3
67893;DHT22;54688;52.376;16.744;2022-11-27T08:01:32;5.3;85.5
67893;DHT22;54688;52.376;16.744;2022-11-27T08:04:34;5.4;86.2
67893;DHT22;54688;52.376;16.744;2022-11-27T08:07:36;5.4;85.7
67893;DHT22;54688;52.376;16.744;2022-11-27T08:10:38;5.5;85.8
67893;DHT22;54688;52.376;16.744;2022-11-27T08:13:41;5.5;85.8
67893;DHT22;54688;52.376;16.744;2022-11-27T08:16:43;5.6;85.7
67893;DHT22;54688;52.376;16.744;2022-11-27T08:19:45;5.6;85.7
67893;DHT22;54688;52.376;16.744;2022-11-27T08:22:47;5.6;85.6
67893;DHT22;54688;52.376;16.744;2022-11-27T08:25:50;5.7;85.6
67893;DHT22;54688;52.376;16.744;2022-11-27T08:28:52;5.7;85.7
67893;DHT22;54688;52.376;16.744;2022-11-27T08:31:54;5.8;85
67893;DHT22;54688;52.376;16.744;2022-11-27T08:34:57;5.8;85.7
67893;DHT22;54688;52.376;16.744;2022-11-27T08:37:59;5.9;85.8
67893;DHT22;54688;52.376;16.744;2022-11-27T08:41:03;5.9;85.5
67893;DHT22;54688;52.376;16.744;2022-11-27T08:44:07;6;86.3
67893;DHT22;54688;52.376;16.744;2022-11-27T08:47:09;6;84.9
67893;DHT22;54688;52.376;16.744;2022-11-27T08:50:11;6.1;85.5
67893;DHT22;54688;52.376;16.744;2022-11-27T08:53:13;6.2;85.6
67893;DHT22;54688;52.376;16.744;2022-11-27T08:56:17;6.3;85.5
67893;DHT22;54688;52.376;16.744;2022-11-27T08:59:20;6.3;84.7
67893;DHT22;54688;52.376;16.744;2022-11-27T09:02:23;6.4;84.6
67893;DHT22;54688;52.376;16.744;2022-11-27T09:05:25;6.4;85.3
67893;DHT22;54688;52.376;16.744;2022-11-27T09:08:28;6.5;84.7
67893;DHT22;54688;52.376;16.744;2022-11-27T09:11:30;6.5;84.8
67893;DHT22;54688;52.376;16.744;2022-11-27T09:14:34;6.5;84.5
67893;DHT22;54688;52.376;16.744;2022-11-27T09:17:36;6.5;84.1
67893;DHT22;54688;52.376;16.744;2022-11-27T09:20:39;6.6;83.9
67893;DHT22;54688;52.376;16.744;2022-11-27T09:23:41;6.6;84.3
67893;DHT22;54688;52.376;16.744;2022-11-27T09:26:42;6.7;84.4
67893;DHT22;54688;52.376;16.744;2022-11-27T09:29:44;6.8;84.2
67893;DHT22;54688;52.376;16.744;2022-11-27T09:32:46;6.8;83.8
67893;DHT22;54688;52.376;16.744;2022-11-27T09:35:48;6.9;84
67893;DHT22;54688;52.376;16.744;2022-11-27T09:38:50;6.9;83.3
67893;DHT22;54688;52.376;16.744;2022-11-27T09:41:54;7;84.1
67893;DHT22;54688;52.376;16.744;2022-11-27T09:44:58;7;84.1
67893;DHT22;54688;52.376;16.744;2022-11-27T09:48:03;7;83
67893;DHT22;54688;52.376;16.744;2022-11-27T09:51:10;7;83.3
67893;DHT22;54688;52.376;16.744;2022-11-27T09:54:19;7;82.6
67893;DHT22;54688;52.376;16.744;2022-11-27T09:57:26;7;83
67893;DHT22;54688;52.376;16.744;2022-11-27T10:00:31;7;82.8
67893;DHT22;54688;52.376;16.744;2022-11-27T10:03:34;7.1;82.6
67893;DHT22;54688;52.376;16.744;2022-11-27T10:06:46;7.1;82.3
67893;DHT22;54688;52.376;16.744;2022-11-27T10:10:02;7.1;82
67893;DHT22;54688;52.376;16.744;2022-11-27T10:13:15;7;81.9
67893;DHT22;54688;52.376;16.744;2022-11-27T10:16:26;7.1;81.8
67893;DHT22;54688;52.376;16.744;2022-11-27T10:19:37;7;81.6
67893;DHT22;54688;52.376;16.744;2022-11-27T10:22:45;7.1;81.8
67893;DHT22;54688;52.376;16.744;2022-11-27T10:25:55;7.1;82.7
67893;DHT22;54688;52.376;16.744;2022-11-27T10:29:04;7.1;81.8
67893;DHT22;54688;52.376;16.744;2022-11-27T10:32:19;7.1;81.7
67893;DHT22;54688;52.376;16.744;2022-11-27T10:35:25;7.1;81
67893;DHT22;54688;52.376;16.744;2022-11-27T10:38:28;7.1;81.8
67893;DHT22;54688;52.376;16.744;2022-11-27T10:41:36;7;80.9
67893;DHT22;54688;52.376;16.744;2022-11-27T10:44:46;7;80.9
67893;DHT22;54688;52.376;16.744;2022-11-27T10:47:51;6.9;80.8
67893;DHT22;54688;52.376;16.744;2022-11-27T10:50:53;6.9;81.3
67893;DHT22;54688;52.376;16.744;2022-11-27T10:53:55;7;81.3
67893;DHT22;54688;52.376;16.744;2022-11-27T10:57:07;7;80.3
67893;DHT22;54688;52.376;16.744;2022-11-27T11:00:20;7;80.9
67893;DHT22;54688;52.376;16.744;2022-11-27T11:03:23;7.1;81
67893;DHT22;54688;52.376;16.744;2022-11-27T11:06:37;7.2;80.6
67893;DHT22;54688;52.376;16.744;2022-11-27T11:09:44;7.2;81.2
67893;DHT22;54688;52.376;16.744;2022-11-27T11:12:47;7.3;80.7
67893;DHT22;54688;52.376;16.744;2022-11-27T11:15:51;7.4;80.3
67893;DHT22;54688;52.376;16.744;2022-11-27T11:18:56;7.4;80.1
67893;DHT22;54688;52.376;16.744;2022-11-27T11:21:58;7.5;79.2
67893;DHT22;54688;52.376;16.744;2022-11-27T11:25:05;7.5;80.4
67893;DHT22;54688;52.376;16.744;2022-11-27T11:28:18;7.5;79.7
67893;DHT22;54688;52.376;16.744;2022-11-27T11:31:21;7.6;79.5
67893;DHT22;54688;52.376;16.744;2022-11-27T11:34:30;7.6;79
67893;DHT22;54688;52.376;16.744;2022-11-27T11:37:34;7.6;79.1
67893;DHT22;54688;52.376;16.744;2022-11-27T11:40:39;7.6;79.4
67893;DHT22;54688;52.376;16.744;2022-11-27T11:43:41;7.5;79.2
67893;DHT22;54688;52.376;16.744;2022-11-27T11:46:55;7.5;79.6
67893;DHT22;54688;52.376;16.744;2022-11-27T11:49:57;7.5;79.9
67893;DHT22;54688;52.376;16.744;2022-11-27T11:53:01;7.5;79.5
67893;DHT22;54688;52.376;16.744;2022-11-27T11:56:16;7.5;79.2
67893;DHT22;54688;52.376;16.744;2022-11-27T11:59:28;7.5;79.2
67893;DHT22;54688;52.376;16.744;2022-11-27T12:02:46;7.4;79.3
67893;DHT22;54688;52.376;16.744;2022-11-27T12:06:14;7.4;79.7
67893;DHT22;54688;52.376;16.744;2022-11-27T12:09:33;7.4;79.3
67893;DHT22;54688;52.376;16.744;2022-11-27T12:12:47;7.5;79.9
67893;DHT22;54688;52.376;16.744;2022-11-27T12:15:59;7.6;79.5
67893;DHT22;54688;52.376;16.744;2022-11-27T12:19:15;7.5;80.1
67893;DHT22;54688;52.376;16.744;2022-11-27T12:22:38;7.6;79.7
67893;DHT22;54688;52.376;16.744;2022-11-27T12:26:08;7.6;79
67893;DHT22;54688;52.376;16.744;2022-11-27T12:29:24;7.7;78.6
67893;DHT22;54688;52.376;16.744;2022-11-27T12:32:43;7.7;79.4
67893;DHT22;54688;52.376;16.744;2022-11-27T12:35:57;7.7;78.5
67893;DHT22;54688;52.376;16.744;2022-11-27T12:39:08;7.6;78.8
67893;DHT22;54688;52.376;16.744;2022-11-27T12:42:16;7.6;79.8
67893;DHT22;54688;52.376;16.744;2022-11-27T12:45:26;7.7;79
67893;DHT22;54688;52.376;16.744;2022-11-27T12:48:34;7.6;78.9
67893;DHT22;54688;52.376;16.744;2022-11-27T12:51:40;7.6;79.5
67893;DHT22;54688;52.376;16.744;2022-11-27T12:54:48;7.6;79.3
67893;DHT22;54688;52.376;16.744;2022-11-27T12:57:55;7.6;78.5
67893;DHT22;54688;52.376;16.744;2022-11-27T13:01:02;7.6;79.4
67893;DHT22;54688;52.376;16.744;2022-11-27T13:04:12;7.6;79.9
67893;DHT22;54688;52.376;16.744;2022-11-27T13:07:21;7.6;79
67893;DHT22;54688;52.376;16.744;2022-11-27T13:10:30;7.6;78.9
67893;DHT22;54688;52.376;16.744;2022-11-27T13:13:36;7.6;79.9
67893;DHT22;54688;52.376;16.744;2022-11-27T13:16:41;7.6;79
67893;DHT22;54688;52.376;16.744;2022-11-27T13:19:44;7.6;78.6
67893;DHT22;54688;52.376;16.744;2022-11-27T13:22:49;7.5;78.5
67893;DHT22;54688;52.376;16.744;2022-11-27T13:25:53;7.5;77.7
67893;DHT22;54688;52.376;16.744;2022-11-27T13:28:57;7.5;78.6
67893;DHT22;54688;52.376;16.744;2022-11-27T13:32:01;7.5;78.7
67893;DHT22;54688;52.376;16.744;2022-11-27T13:35:07;7.4;78.7
67893;DHT22;54688;52.376;16.744;2022-11-27T13:38:22;7.4;79.1
67893;DHT22;54688;52.376;16.744;2022-11-27T13:41:29;7.4;79.1
67893;DHT22;54688;52.376;16.744;2022-11-27T13:44:33;7.4;79.3
67893;DHT22;54688;52.376;16.744;2022-11-27T13:47:39;7.3;79.4
67893;DHT22;54688;52.376;16.744;2022-11-27T13:50:43;7.3;79.2
67893;DHT22;54688;52.376;16.744;2022-11-27T13:53:46;7.3;79.3
67893;DHT22;54688;52.376;16.744;2022-11-27T13:56:48;7.3;79.9
67893;DHT22;54688;52.376;16.744;2022-11-27T13:59:54;7.2;80
67893;DHT22;54688;52.376;16.744;2022-11-27T14:02:58;7.2;79.6
67893;DHT22;54688;52.376;16.744;2022-11-27T14:06:00;7.1;79.5
67893;DHT22;54688;52.376;16.744;2022-11-27T14:09:03;7.1;79.9
67893;DHT22;54688;52.376;16.744;2022-11-27T14:12:15;7;80
67893;DHT22;54688;52.376;16.744;2022-11-27T14:15:21;7;80.3
67893;DHT22;54688;52.376;16.744;2022-11-27T14:18:25;6.9;80.5
67893;DHT22;54688;52.376;16.744;2022-11-27T14:21:32;6.9;80
67893;DHT22;54688;52.376;16.744;2022-11-27T14:24:40;6.9;80.1
67893;DHT22;54688;52.376;16.744;2022-11-27T14:27:43;6.8;80.1
67893;DHT22;54688;52.376;16.744;2022-11-27T14:30:47;6.7;80
67893;DHT22;54688;52.376;16.744;2022-11-27T14:33:50;6.6;80.4
67893;DHT22;54688;52.376;16.744;2022-11-27T14:36:52;6.6;80.1
67893;DHT22;54688;52.376;16.744;2022-11-27T14:39:55;6.5;80.2
67893;DHT22;54688;52.376;16.744;2022-11-27T14:45:57;6.4;80.9
67893;DHT22;54688;52.376;16.744;2022-11-27T14:49:01;6.3;80.7
67893;DHT22;54688;52.376;16.744;2022-11-27T14:52:06;6.2;81.4
67893;DHT22;54688;52.376;16.744;2022-11-27T14:55:13;6.2;81.3
67893;DHT22;54688;52.376;16.744;2022-11-27T14:58:16;6.1;80.4
67893;DHT22;54688;52.376;16.744;2022-11-27T15:01:22;6;81.7
67893;DHT22;54688;52.376;16.744;2022-11-27T15:04:27;5.9;81.3
67893;DHT22;54688;52.376;16.744;2022-11-27T15:07:30;5.9;81.7
67893;DHT22;54688;52.376;16.744;2022-11-27T15:10:34;5.8;82.1
67893;DHT22;54688;52.376;16.744;2022-11-27T15:13:37;5.8;82.4
67893;DHT22;54688;52.376;16.744;2022-11-27T15:16:42;5.8;82.3
67893;DHT22;54688;52.376;16.744;2022-11-27T15:19:47;5.7;83.3
67893;DHT22;54688;52.376;16.744;2022-11-27T15:22:49;5.7;82.8
67893;DHT22;54688;52.376;16.744;2022-11-27T15:26:02;5.7;82.8
67893;DHT22;54688;52.376;16.744;2022-11-27T15:29:22;5.7;82.8
67893;DHT22;54688;52.376;16.744;2022-11-27T15:32:40;5.6;82.9
67893;DHT22;54688;52.376;16.744;2022-11-27T15:35:44;5.6;83.6
67893;DHT22;54688;52.376;16.744;2022-11-27T15:38:46;5.6;83
67893;DHT22;54688;52.376;16.744;2022-11-27T15:41:49;5.6;83.2
67893;DHT22;54688;52.376;16.744;2022-11-27T15:44:53;5.6;83.1
67893;DHT22;54688;52.376;16.744;2022-11-27T15:47:57;5.6;83.6
67893;DHT22;54688;52.376;16.744;2022-11-27T15:50:59;5.6;83.1
67893;DHT22;54688;52.376;16.744;2022-11-27T15:54:02;5.6;82.8
67893;DHT22;54688;52.376;16.744;2022-11-27T15:57:04;5.5;82.9
67893;DHT22;54688;52.376;16.744;2022-11-27T16:00:10;5.5;83
67893;DHT22;54688;52.376;16.744;2022-11-27T16:03:13;5.5;82.8
67893;DHT22;54688;52.376;16.744;2022-11-27T16:06:15;5.5;83.2
67893;DHT22;54688;52.376;16.744;2022-11-27T16:09:17;5.5;83.4
67893;DHT22;54688;52.376;16.744;2022-11-27T16:12:20;5.5;83.6
67893;DHT22;54688;52.376;16.744;2022-11-27T16:15:22;5.5;83.4
67893;DHT22;54688;52.376;16.744;2022-11-27T16:18:24;5.4;83.8
67893;DHT22;54688;52.376;16.744;2022-11-27T16:21:26;5.4;83.3
67893;DHT22;54688;52.376;16.744;2022-11-27T16:24:29;5.4;83.2
67893;DHT22;54688;52.376;16.744;2022-11-27T16:27:31;5.4;83.5
67893;DHT22;54688;52.376;16.744;2022-11-27T16:30:34;5.4;83.5
67893;DHT22;54688;52.376;16.744;2022-11-27T16:33:36;5.4;83.7
67893;DHT22;54688;52.376;16.744;2022-11-27T16:36:39;5.4;83.6
67893;DHT22;54688;52.376;16.744;2022-11-27T16:39:41;5.4;83.6
67893;DHT22;54688;52.376;16.744;2022-11-27T16:45:43;5.4;83
67893;DHT22;54688;52.376;16.744;2022-11-27T16:48:46;5.3;83.7
67893;DHT22;54688;52.376;16.744;2022-11-27T16:51:49;5.3;84.7
67893;DHT22;54688;52.376;16.744;2022-11-27T16:54:52;5.3;83
67893;DHT22;54688;52.376;16.744;2022-11-27T16:57:55;5.3;83.7
67893;DHT22;54688;52.376;16.744;2022-11-27T17:00:57;5.2;83.2
67893;DHT22;54688;52.376;16.744;2022-11-27T17:03:59;5.2;82.6
67893;DHT22;54688;52.376;16.744;2022-11-27T17:07:01;5.1;83.6
67893;DHT22;54688;52.376;16.744;2022-11-27T17:10:05;5;83.8
67893;DHT22;54688;52.376;16.744;2022-11-27T17:13:08;5;84.2
67893;DHT22;54688;52.376;16.744;2022-11-27T17:16:10;4.9;84.5
67893;DHT22;54688;52.376;16.744;2022-11-27T17:19:14;4.9;84.3
67893;DHT22;54688;52.376;16.744;2022-11-27T17:22:17;4.8;83.8
67893;DHT22;54688;52.376;16.744;2022-11-27T17:25:19;4.8;84.2
67893;DHT22;54688;52.376;16.744;2022-11-27T17:28:22;4.8;84.3
67893;DHT22;54688;52.376;16.744;2022-11-27T17:31:25;4.8;83.6
67893;DHT22;54688;52.376;16.744;2022-11-27T17:34:28;4.8;84.7
67893;DHT22;54688;52.376;16.744;2022-11-27T17:37:30;4.8;84.6
67893;DHT22;54688;52.376;16.744;2022-11-27T17:40:33;4.8;85.3
67893;DHT22;54688;52.376;16.744;2022-11-27T17:43:35;4.8;84.2
67893;DHT22;54688;52.376;16.744;2022-11-27T17:46:38;4.8;85.3
67893;DHT22;54688;52.376;16.744;2022-11-27T17:49:41;4.8;84.8
67893;DHT22;54688;52.376;16.744;2022-11-27T17:52:44;4.8;84.8
67893;DHT22;54688;52.376;16.744;2022-11-27T17:55:45;4.8;84.9
67893;DHT22;54688;52.376;16.744;2022-11-27T17:58:48;4.7;84.9
67893;DHT22;54688;52.376;16.744;2022-11-27T18:01:51;4.8;84.9
67893;DHT22;54688;52.376;16.744;2022-11-27T18:04:53;4.8;84.8
67893;DHT22;54688;52.376;16.744;2022-11-27T18:07:56;4.8;84.8
67893;DHT22;54688;52.376;16.744;2022-11-27T18:11:02;4.8;84.8
67893;DHT22;54688;52.376;16.744;2022-11-27T18:14:06;4.8;84.7
67893;DHT22;54688;52.376;16.744;2022-11-27T18:17:08;4.8;85.6
67893;DHT22;54688;52.376;16.744;2022-11-27T18:20:10;4.8;84.7
67893;DHT22;54688;52.376;16.744;2022-11-27T18:23:13;4.8;84.6
67893;DHT22;54688;52.376;16.744;2022-11-27T18:26:17;4.8;84.7
67893;DHT22;54688;52.376;16.744;2022-11-27T18:29:20;4.9;84.8
67893;DHT22;54688;52.376;16.744;2022-11-27T18:32:22;4.8;84.6
67893;DHT22;54688;52.376;16.744;2022-11-27T18:35:24;4.9;85.3
67893;DHT22;54688;52.376;16.744;2022-11-27T18:38:28;4.9;84.5
67893;DHT22;54688;52.376;16.744;2022-11-27T18:41:31;4.9;84.8
67893;DHT22;54688;52.376;16.744;2022-11-27T18:44:33;4.9;84.5
67893;DHT22;54688;52.376;16.744;2022-11-27T18:47:35;4.9;84.3
67893;DHT22;54688;52.376;16.744;2022-11-27T18:50:36;4.9;83.9
67893;DHT22;54688;52.376;16.744;2022-11-27T18:53:39;4.9;84.2
67893;DHT22;54688;52.376;16.744;2022-11-27T18:56:42;4.9;84.2
67893;DHT22;54688;52.376;16.744;2022-11-27T18:59:44;4.9;84.2
67893;DHT22;54688;52.376;16.744;2022-11-27T19:02:46;4.9;84.3
67893;DHT22;54688;52.376;16.744;2022-11-27T19:05:49;4.9;84.3
67893;DHT22;54688;52.376;16.744;2022-11-27T19:08:51;4.9;84.2
67893;DHT22;54688;52.376;16.744;2022-11-27T19:11:53;4.9;84.1
67893;DHT22;54688;52.376;16.744;2022-11-27T19:14:56;4.9;84.4
67893;DHT22;54688;52.376;16.744;2022-11-27T19:17:58;4.9;83.7
67893;DHT22;54688;52.376;16.744;2022-11-27T19:21:01;4.9;84.3
67893;DHT22;54688;52.376;16.744;2022-11-27T19:24:08;4.9;84.3
67893;DHT22;54688;52.376;16.744;2022-11-27T19:27:10;4.8;84.8
67893;DHT22;54688;52.376;16.744;2022-11-27T19:30:13;4.8;84.2
67893;DHT22;54688;52.376;16.744;2022-11-27T19:33:15;4.8;84.4
67893;DHT22;54688;52.376;16.744;2022-11-27T19:36:18;4.8;83.9
67893;DHT22;54688;52.376;16.744;2022-11-27T19:39:20;4.8;83.9
67893;DHT22;54688;52.376;16.744;2022-11-27T19:42:22;4.8;83.9
67893;DHT22;54688;52.376;16.744;2022-11-27T19:45:25;4.8;83.9
67893;DHT22;54688;52.376;16.744;2022-11-27T19:48:27;4.8;84.1
67893;DHT22;54688;52.376;16.744;2022-11-27T19:51:30;4.8;84
67893;DHT22;54688;52.376;16.744;2022-11-27T19:54:34;4.7;84
67893;DHT22;54688;52.376;16.744;2022-11-27T19:57:36;4.7;83.9
67893;DHT22;54688;52.376;16.744;2022-11-27T20:00:39;4.7;83.8
67893;DHT22;54688;52.376;16.744;2022-11-27T20:03:41;4.7;83.7
67893;DHT22;54688;52.376;16.744;2022-11-27T20:06:44;4.7;84.3
67893;DHT22;54688;52.376;16.744;2022-11-27T20:09:45;4.6;83.8
67893;DHT22;54688;52.376;16.744;2022-11-27T20:12:47;4.6;83.8
67893;DHT22;54688;52.376;16.744;2022-11-27T20:15:49;4.6;84.1
67893;DHT22;54688;52.376;16.744;2022-11-27T20:18:52;4.6;83.9
67893;DHT22;54688;52.376;16.744;2022-11-27T20:21:54;4.5;85
67893;DHT22;54688;52.376;16.744;2022-11-27T20:24:56;4.5;84.1
67893;DHT22;54688;52.376;16.744;2022-11-27T20:27:58;4.5;84
67893;DHT22;54688;52.376;16.744;2022-11-27T20:31:01;4.5;83.9
67893;DHT22;54688;52.376;16.744;2022-11-27T20:34:04;4.5;83.9